sensor_id;sensor_type;location;lat;lon;timestamp;P1;durP1;ratioP1;P2;durP2;ratioP2
78783;SDS011;68127;51.050;14.084;2023-07-20T00:01:24;7.75;;;4.65;;
78783;SDS011;68127;51.050;14.084;2023-07-20T00:03:49;7.50;;;4.25;;
78783;SDS011;68127;51.050;14.084;2023-07-20T00:06:26;8.18;;;4.70;;
78783;SDS011;68127;51.050;14.084;2023-07-20T00:08:52;8.07;;;4.70;;
78783;SDS011;68127;51.050;14.084;2023-07-20T00:11:18;7.63;;;4.72;;
78783;SDS011;68127;51.050;14.084;2023-07-20T00:13:43;9.02;;;5.32;;
78783;SDS011;68127;51.050;14.084;2023-07-20T00:16:09;7.70;;;5.18;;
78783;SDS011;68127;51.050;14.084;2023-07-20T00:18:34;6.85;;;4.88;;
78783;SDS011;68127;51.050;14.084;2023-07-20T00:20:59;8.50;;;5.03;;
78783;SDS011;68127;51.050;14.084;2023-07-20T00:23:25;7.57;;;4.60;;
78783;SDS011;68127;51.050;14.084;2023-07-20T00:25:51;8.00;;;5.45;;
78783;SDS011;68127;51.050;14.084;2023-07-20T00:28:16;6.97;;;5.35;;
78783;SDS011;68127;51.050;14.084;2023-07-20T00:30:41;7.80;;;4.80;;
78783;SDS011;68127;51.050;14.084;2023-07-20T00:33:09;6.78;;;4.97;;
78783;SDS011;68127;51.050;14.084;2023-07-20T00:35:35;8.07;;;5.60;;
78783;SDS011;68127;51.050;14.084;2023-07-20T00:38:00;9.45;;;5.32;;
78783;SDS011;68127;51.050;14.084;2023-07-20T00:40:26;8.07;;;5.38;;
78783;SDS011;68127;51.050;14.084;2023-07-20T00:42:51;8.93;;;4.80;;
78783;SDS011;68127;51.050;14.084;2023-07-20T00:45:16;13.82;;;6.28;;
78783;SDS011;68127;51.050;14.084;2023-07-20T00:47:41;8.88;;;5.38;;
78783;SDS011;68127;51.050;14.084;2023-07-20T00:50:07;8.73;;;5.45;;
78783;SDS011;68127;51.050;14.084;2023-07-20T00:52:33;7.72;;;5.63;;
78783;SDS011;68127;51.050;14.084;2023-07-20T00:54:58;8.45;;;5.22;;
78783;SDS011;68127;51.050;14.084;2023-07-20T00:57:24;8.13;;;5.07;;
78783;SDS011;68127;51.050;14.084;2023-07-20T00:59:50;9.43;;;5.32;;
78783;SDS011;68127;51.050;14.084;2023-07-20T01:02:16;6.82;;;5.13;;
78783;SDS011;68127;51.050;14.084;2023-07-20T01:04:41;7.22;;;5.22;;
78783;SDS011;68127;51.050;14.084;2023-07-20T01:10:00;7.72;;;4.80;;
78783;SDS011;68127;51.050;14.084;2023-07-20T01:13:10;7.50;;;5.20;;
78783;SDS011;68127;51.050;14.084;2023-07-20T01:15:17;9.23;;;5.28;;
78783;SDS011;68127;51.050;14.084;2023-07-20T01:17:42;8.32;;;5.18;;
78783;SDS011;68127;51.050;14.084;2023-07-20T01:20:09;8.52;;;4.75;;
78783;SDS011;68127;51.050;14.084;2023-07-20T01:22:48;6.82;;;4.95;;
78783;SDS011;68127;51.050;14.084;2023-07-20T01:31:42;7.88;;;5.80;;
78783;SDS011;68127;51.050;14.084;2023-07-20T01:33:50;9.13;;;5.93;;
78783;SDS011;68127;51.050;14.084;2023-07-20T01:36:16;10.45;;;5.15;;
78783;SDS011;68127;51.050;14.084;2023-07-20T01:38:42;7.22;;;5.30;;
78783;SDS011;68127;51.050;14.084;2023-07-20T01:41:09;10.18;;;5.75;;
78783;SDS011;68127;51.050;14.084;2023-07-20T01:43:35;8.77;;;5.60;;
78783;SDS011;68127;51.050;14.084;2023-07-20T01:46:01;9.10;;;5.22;;
78783;SDS011;68127;51.050;14.084;2023-07-20T01:48:26;8.15;;;5.70;;
78783;SDS011;68127;51.050;14.084;2023-07-20T01:50:51;9.82;;;5.80;;
78783;SDS011;68127;51.050;14.084;2023-07-20T01:53:17;9.40;;;5.57;;
78783;SDS011;68127;51.050;14.084;2023-07-20T01:55:42;8.13;;;5.57;;
78783;SDS011;68127;51.050;14.084;2023-07-20T01:58:08;9.90;;;5.80;;
78783;SDS011;68127;51.050;14.084;2023-07-20T02:00:33;10.70;;;5.93;;
78783;SDS011;68127;51.050;14.084;2023-07-20T02:02:58;13.63;;;6.38;;
78783;SDS011;68127;51.050;14.084;2023-07-20T02:05:24;9.80;;;5.70;;
78783;SDS011;68127;51.050;14.084;2023-07-20T02:07:49;9.68;;;5.88;;
78783;SDS011;68127;51.050;14.084;2023-07-20T02:10:14;9.73;;;6.00;;
78783;SDS011;68127;51.050;14.084;2023-07-20T02:12:40;9.93;;;6.13;;
78783;SDS011;68127;51.050;14.084;2023-07-20T02:15:05;7.60;;;5.90;;
78783;SDS011;68127;51.050;14.084;2023-07-20T02:17:31;10.73;;;6.38;;
78783;SDS011;68127;51.050;14.084;2023-07-20T02:19:56;10.88;;;6.68;;
78783;SDS011;68127;51.050;14.084;2023-07-20T02:22:24;9.15;;;5.93;;
78783;SDS011;68127;51.050;14.084;2023-07-20T02:24:49;12.82;;;6.95;;
78783;SDS011;68127;51.050;14.084;2023-07-20T02:27:15;7.55;;;5.75;;
78783;SDS011;68127;51.050;14.084;2023-07-20T02:29:40;9.70;;;5.65;;
78783;SDS011;68127;51.050;14.084;2023-07-20T02:32:06;8.25;;;6.25;;
78783;SDS011;68127;51.050;14.084;2023-07-20T02:34:32;8.38;;;5.50;;
78783;SDS011;68127;51.050;14.084;2023-07-20T02:36:58;7.75;;;5.95;;
78783;SDS011;68127;51.050;14.084;2023-07-20T02:39:29;8.52;;;5.53;;
78783;SDS011;68127;51.050;14.084;2023-07-20T02:41:54;8.25;;;5.40;;
78783;SDS011;68127;51.050;14.084;2023-07-20T02:44:20;7.68;;;5.72;;
78783;SDS011;68127;51.050;14.084;2023-07-20T02:46:45;8.30;;;5.22;;
78783;SDS011;68127;51.050;14.084;2023-07-20T02:49:10;8.00;;;4.88;;
78783;SDS011;68127;51.050;14.084;2023-07-20T02:51:36;6.68;;;4.65;;
78783;SDS011;68127;51.050;14.084;2023-07-20T02:54:01;8.25;;;5.53;;
78783;SDS011;68127;51.050;14.084;2023-07-20T02:56:26;8.30;;;4.85;;
78783;SDS011;68127;51.050;14.084;2023-07-20T02:58:52;8.68;;;5.88;;
78783;SDS011;68127;51.050;14.084;2023-07-20T03:01:17;6.93;;;4.88;;
78783;SDS011;68127;51.050;14.084;2023-07-20T03:03:42;6.10;;;4.30;;
78783;SDS011;68127;51.050;14.084;2023-07-20T03:06:11;9.95;;;4.43;;
78783;SDS011;68127;51.050;14.084;2023-07-20T03:08:40;5.80;;;3.67;;
78783;SDS011;68127;51.050;14.084;2023-07-20T03:11:06;9.95;;;4.22;;
78783;SDS011;68127;51.050;14.084;2023-07-20T03:13:32;6.15;;;3.75;;
78783;SDS011;68127;51.050;14.084;2023-07-20T03:15:57;7.82;;;3.78;;
78783;SDS011;68127;51.050;14.084;2023-07-20T03:18:22;7.57;;;3.53;;
78783;SDS011;68127;51.050;14.084;2023-07-20T03:20:47;6.78;;;3.53;;
78783;SDS011;68127;51.050;14.084;2023-07-20T03:23:13;6.68;;;3.63;;
78783;SDS011;68127;51.050;14.084;2023-07-20T03:25:40;6.88;;;3.67;;
78783;SDS011;68127;51.050;14.084;2023-07-20T03:28:05;5.20;;;3.50;;
78783;SDS011;68127;51.050;14.084;2023-07-20T03:30:30;7.53;;;3.70;;
78783;SDS011;68127;51.050;14.084;2023-07-20T03:32:56;4.97;;;3.65;;
78783;SDS011;68127;51.050;14.084;2023-07-20T03:35:21;7.30;;;3.80;;
78783;SDS011;68127;51.050;14.084;2023-07-20T03:37:47;6.25;;;4.20;;
78783;SDS011;68127;51.050;14.084;2023-07-20T03:40:12;7.50;;;3.45;;
78783;SDS011;68127;51.050;14.084;2023-07-20T03:42:37;5.97;;;3.40;;
78783;SDS011;68127;51.050;14.084;2023-07-20T03:45:04;7.72;;;3.70;;
78783;SDS011;68127;51.050;14.084;2023-07-20T03:47:31;10.60;;;4.03;;
78783;SDS011;68127;51.050;14.084;2023-07-20T03:49:56;7.18;;;3.70;;
78783;SDS011;68127;51.050;14.084;2023-07-20T03:52:21;5.93;;;3.95;;
78783;SDS011;68127;51.050;14.084;2023-07-20T03:54:47;9.38;;;4.60;;
78783;SDS011;68127;51.050;14.084;2023-07-20T03:57:12;6.32;;;4.30;;
78783;SDS011;68127;51.050;14.084;2023-07-20T03:59:39;8.05;;;4.68;;
78783;SDS011;68127;51.050;14.084;2023-07-20T04:02:04;7.88;;;4.38;;
78783;SDS011;68127;51.050;14.084;2023-07-20T04:04:30;6.30;;;4.00;;
78783;SDS011;68127;51.050;14.084;2023-07-20T04:06:56;6.80;;;4.05;;
78783;SDS011;68127;51.050;14.084;2023-07-20T04:09:21;7.60;;;3.88;;
78783;SDS011;68127;51.050;14.084;2023-07-20T04:11:46;9.57;;;4.80;;
78783;SDS011;68127;51.050;14.084;2023-07-20T04:14:11;8.80;;;5.00;;
78783;SDS011;68127;51.050;14.084;2023-07-20T04:16:37;8.90;;;5.18;;
78783;SDS011;68127;51.050;14.084;2023-07-20T04:19:02;7.57;;;5.32;;
78783;SDS011;68127;51.050;14.084;2023-07-20T04:24:12;7.25;;;4.95;;
78783;SDS011;68127;51.050;14.084;2023-07-20T04:26:37;8.55;;;4.78;;
78783;SDS011;68127;51.050;14.084;2023-07-20T04:29:02;8.38;;;5.18;;
78783;SDS011;68127;51.050;14.084;2023-07-20T04:31:28;10.27;;;5.13;;
78783;SDS011;68127;51.050;14.084;2023-07-20T04:33:54;9.13;;;5.07;;
78783;SDS011;68127;51.050;14.084;2023-07-20T04:36:19;9.93;;;5.20;;
78783;SDS011;68127;51.050;14.084;2023-07-20T04:38:45;12.98;;;6.45;;
78783;SDS011;68127;51.050;14.084;2023-07-20T04:41:10;11.15;;;5.57;;
78783;SDS011;68127;51.050;14.084;2023-07-20T04:43:38;8.50;;;5.78;;
78783;SDS011;68127;51.050;14.084;2023-07-20T04:46:06;13.73;;;7.07;;
78783;SDS011;68127;51.050;14.084;2023-07-20T04:48:31;12.95;;;5.60;;
78783;SDS011;68127;51.050;14.084;2023-07-20T04:50:56;9.77;;;5.55;;
78783;SDS011;68127;51.050;14.084;2023-07-20T04:53:21;14.18;;;5.80;;
78783;SDS011;68127;51.050;14.084;2023-07-20T04:55:48;10.02;;;5.25;;
78783;SDS011;68127;51.050;14.084;2023-07-20T04:58:17;11.57;;;6.07;;
78783;SDS011;68127;51.050;14.084;2023-07-20T05:00:43;11.43;;;5.25;;
78783;SDS011;68127;51.050;14.084;2023-07-20T05:03:09;9.95;;;5.07;;
78783;SDS011;68127;51.050;14.084;2023-07-20T05:05:34;11.85;;;5.60;;
78783;SDS011;68127;51.050;14.084;2023-07-20T05:07:59;10.55;;;6.25;;
78783;SDS011;68127;51.050;14.084;2023-07-20T05:10:24;10.13;;;6.10;;
78783;SDS011;68127;51.050;14.084;2023-07-20T05:12:50;12.32;;;5.53;;
78783;SDS011;68127;51.050;14.084;2023-07-20T05:15:15;10.23;;;6.03;;
78783;SDS011;68127;51.050;14.084;2023-07-20T05:17:40;18.45;;;6.25;;
78783;SDS011;68127;51.050;14.084;2023-07-20T05:20:06;10.80;;;6.05;;
78783;SDS011;68127;51.050;14.084;2023-07-20T05:22:31;11.18;;;5.80;;
78783;SDS011;68127;51.050;14.084;2023-07-20T05:24:57;14.63;;;6.13;;
78783;SDS011;68127;51.050;14.084;2023-07-20T05:27:22;10.70;;;5.82;;
78783;SDS011;68127;51.050;14.084;2023-07-20T05:29:47;10.35;;;5.95;;
78783;SDS011;68127;51.050;14.084;2023-07-20T05:32:13;8.55;;;5.50;;
78783;SDS011;68127;51.050;14.084;2023-07-20T05:34:39;12.40;;;6.32;;
78783;SDS011;68127;51.050;14.084;2023-07-20T05:37:05;10.43;;;5.60;;
78783;SDS011;68127;51.050;14.084;2023-07-20T05:39:32;14.13;;;6.18;;
78783;SDS011;68127;51.050;14.084;2023-07-20T05:41:57;12.35;;;6.72;;
78783;SDS011;68127;51.050;14.084;2023-07-20T05:44:23;15.38;;;6.20;;
78783;SDS011;68127;51.050;14.084;2023-07-20T05:46:48;10.90;;;6.00;;
78783;SDS011;68127;51.050;14.084;2023-07-20T05:49:13;13.02;;;7.28;;
78783;SDS011;68127;51.050;14.084;2023-07-20T05:51:39;11.88;;;6.88;;
78783;SDS011;68127;51.050;14.084;2023-07-20T05:54:04;11.45;;;6.93;;
78783;SDS011;68127;51.050;14.084;2023-07-20T05:56:30;12.77;;;7.00;;
78783;SDS011;68127;51.050;14.084;2023-07-20T05:58:55;12.80;;;7.13;;
78783;SDS011;68127;51.050;14.084;2023-07-20T06:01:20;12.93;;;7.60;;
78783;SDS011;68127;51.050;14.084;2023-07-20T06:03:46;12.00;;;7.28;;
78783;SDS011;68127;51.050;14.084;2023-07-20T06:06:11;13.25;;;7.40;;
78783;SDS011;68127;51.050;14.084;2023-07-20T06:08:37;12.07;;;6.53;;
78783;SDS011;68127;51.050;14.084;2023-07-20T06:11:03;9.95;;;6.97;;
78783;SDS011;68127;51.050;14.084;2023-07-20T06:13:29;9.57;;;7.75;;
78783;SDS011;68127;51.050;14.084;2023-07-20T06:15:54;12.38;;;7.53;;
78783;SDS011;68127;51.050;14.084;2023-07-20T06:18:20;9.45;;;7.00;;
78783;SDS011;68127;51.050;14.084;2023-07-20T06:20:50;10.02;;;7.40;;
78783;SDS011;68127;51.050;14.084;2023-07-20T06:23:16;8.57;;;6.40;;
78783;SDS011;68127;51.050;14.084;2023-07-20T06:25:43;14.30;;;7.57;;
78783;SDS011;68127;51.050;14.084;2023-07-20T06:28:08;10.40;;;7.20;;
78783;SDS011;68127;51.050;14.084;2023-07-20T06:30:34;9.30;;;6.63;;
78783;SDS011;68127;51.050;14.084;2023-07-20T06:32:59;11.75;;;7.20;;
78783;SDS011;68127;51.050;14.084;2023-07-20T06:35:25;11.60;;;7.10;;
78783;SDS011;68127;51.050;14.084;2023-07-20T06:37:51;10.85;;;6.85;;
78783;SDS011;68127;51.050;14.084;2023-07-20T06:40:16;8.93;;;6.72;;
78783;SDS011;68127;51.050;14.084;2023-07-20T06:42:42;8.00;;;6.85;;
78783;SDS011;68127;51.050;14.084;2023-07-20T06:45:07;10.43;;;6.32;;
78783;SDS011;68127;51.050;14.084;2023-07-20T06:47:33;8.55;;;6.35;;
78783;SDS011;68127;51.050;14.084;2023-07-20T06:49:59;8.57;;;6.07;;
78783;SDS011;68127;51.050;14.084;2023-07-20T06:52:24;8.05;;;6.50;;
78783;SDS011;68127;51.050;14.084;2023-07-20T06:54:49;6.65;;;5.13;;
78783;SDS011;68127;51.050;14.084;2023-07-20T06:57:14;10.63;;;6.10;;
78783;SDS011;68127;51.050;14.084;2023-07-20T06:59:40;8.25;;;5.50;;
78783;SDS011;68127;51.050;14.084;2023-07-20T07:02:05;8.23;;;5.32;;
78783;SDS011;68127;51.050;14.084;2023-07-20T07:04:31;8.57;;;6.10;;
78783;SDS011;68127;51.050;14.084;2023-07-20T07:06:56;10.27;;;6.22;;
78783;SDS011;68127;51.050;14.084;2023-07-20T07:09:22;8.75;;;6.47;;
78783;SDS011;68127;51.050;14.084;2023-07-20T07:11:47;11.25;;;6.68;;
78783;SDS011;68127;51.050;14.084;2023-07-20T07:14:12;13.50;;;5.80;;
78783;SDS011;68127;51.050;14.084;2023-07-20T07:16:38;10.02;;;6.07;;
78783;SDS011;68127;51.050;14.084;2023-07-20T07:19:03;9.57;;;5.70;;
78783;SDS011;68127;51.050;14.084;2023-07-20T07:21:30;7.20;;;5.30;;
78783;SDS011;68127;51.050;14.084;2023-07-20T07:23:57;5.95;;;4.85;;
78783;SDS011;68127;51.050;14.084;2023-07-20T07:26:24;6.88;;;4.63;;
78783;SDS011;68127;51.050;14.084;2023-07-20T07:28:50;7.50;;;4.78;;
78783;SDS011;68127;51.050;14.084;2023-07-20T07:31:15;5.20;;;3.40;;
78783;SDS011;68127;51.050;14.084;2023-07-20T07:33:40;5.63;;;3.10;;
78783;SDS011;68127;51.050;14.084;2023-07-20T07:36:06;5.55;;;3.22;;
78783;SDS011;68127;51.050;14.084;2023-07-20T07:38:31;8.25;;;4.93;;
78783;SDS011;68127;51.050;14.084;2023-07-20T07:40:57;11.80;;;8.13;;
78783;SDS011;68127;51.050;14.084;2023-07-20T07:43:23;8.30;;;5.97;;
78783;SDS011;68127;51.050;14.084;2023-07-20T07:45:48;7.35;;;4.07;;
78783;SDS011;68127;51.050;14.084;2023-07-20T07:48:13;5.32;;;2.92;;
78783;SDS011;68127;51.050;14.084;2023-07-20T07:50:39;4.82;;;3.13;;
78783;SDS011;68127;51.050;14.084;2023-07-20T07:53:05;5.70;;;3.22;;
78783;SDS011;68127;51.050;14.084;2023-07-20T07:55:30;6.85;;;3.30;;
78783;SDS011;68127;51.050;14.084;2023-07-20T07:57:56;6.97;;;3.20;;
78783;SDS011;68127;51.050;14.084;2023-07-20T08:00:21;4.95;;;3.00;;
78783;SDS011;68127;51.050;14.084;2023-07-20T08:02:46;6.07;;;2.97;;
78783;SDS011;68127;51.050;14.084;2023-07-20T08:05:13;5.15;;;3.30;;
78783;SDS011;68127;51.050;14.084;2023-07-20T08:07:38;5.18;;;3.45;;
78783;SDS011;68127;51.050;14.084;2023-07-20T08:10:04;5.47;;;3.47;;
78783;SDS011;68127;51.050;14.084;2023-07-20T08:12:30;4.40;;;2.80;;
78783;SDS011;68127;51.050;14.084;2023-07-20T08:14:56;7.57;;;3.30;;
78783;SDS011;68127;51.050;14.084;2023-07-20T08:17:21;8.27;;;3.50;;
78783;SDS011;68127;51.050;14.084;2023-07-20T08:19:46;7.20;;;4.00;;
78783;SDS011;68127;51.050;14.084;2023-07-20T08:22:12;7.60;;;4.28;;
78783;SDS011;68127;51.050;14.084;2023-07-20T08:24:40;8.05;;;4.20;;
78783;SDS011;68127;51.050;14.084;2023-07-20T08:27:06;7.88;;;5.03;;
78783;SDS011;68127;51.050;14.084;2023-07-20T08:29:31;8.27;;;4.82;;
78783;SDS011;68127;51.050;14.084;2023-07-20T08:31:57;7.30;;;4.95;;
78783;SDS011;68127;51.050;14.084;2023-07-20T08:34:22;8.15;;;5.85;;
78783;SDS011;68127;51.050;14.084;2023-07-20T08:36:47;10.55;;;5.32;;
78783;SDS011;68127;51.050;14.084;2023-07-20T08:39:13;7.10;;;5.32;;
78783;SDS011;68127;51.050;14.084;2023-07-20T08:41:38;8.70;;;5.90;;
78783;SDS011;68127;51.050;14.084;2023-07-20T08:44:04;9.40;;;6.20;;
78783;SDS011;68127;51.050;14.084;2023-07-20T08:46:29;8.50;;;5.55;;
78783;SDS011;68127;51.050;14.084;2023-07-20T08:48:55;8.88;;;5.65;;
78783;SDS011;68127;51.050;14.084;2023-07-20T08:51:21;7.72;;;5.35;;
78783;SDS011;68127;51.050;14.084;2023-07-20T08:53:47;8.45;;;5.75;;
78783;SDS011;68127;51.050;14.084;2023-07-20T08:56:12;6.47;;;4.70;;
78783;SDS011;68127;51.050;14.084;2023-07-20T08:58:39;6.70;;;4.35;;
78783;SDS011;68127;51.050;14.084;2023-07-20T09:01:06;7.38;;;4.70;;
78783;SDS011;68127;51.050;14.084;2023-07-20T09:03:31;6.97;;;5.10;;
78783;SDS011;68127;51.050;14.084;2023-07-20T09:05:57;6.60;;;4.97;;
78783;SDS011;68127;51.050;14.084;2023-07-20T09:08:23;5.93;;;4.20;;
78783;SDS011;68127;51.050;14.084;2023-07-20T09:10:48;5.80;;;4.28;;
78783;SDS011;68127;51.050;14.084;2023-07-20T09:13:14;7.25;;;4.22;;
78783;SDS011;68127;51.050;14.084;2023-07-20T09:15:45;6.38;;;3.95;;
78783;SDS011;68127;51.050;14.084;2023-07-20T09:18:10;5.97;;;3.83;;
78783;SDS011;68127;51.050;14.084;2023-07-20T09:20:36;5.70;;;3.95;;
78783;SDS011;68127;51.050;14.084;2023-07-20T09:23:04;8.50;;;4.18;;
78783;SDS011;68127;51.050;14.084;2023-07-20T09:25:30;11.48;;;4.38;;
78783;SDS011;68127;51.050;14.084;2023-07-20T09:27:56;5.28;;;3.55;;
78783;SDS011;68127;51.050;14.084;2023-07-20T09:30:24;6.95;;;3.80;;
78783;SDS011;68127;51.050;14.084;2023-07-20T09:32:50;5.43;;;3.83;;
78783;SDS011;68127;51.050;14.084;2023-07-20T09:35:16;8.02;;;3.83;;
78783;SDS011;68127;51.050;14.084;2023-07-20T09:37:46;6.15;;;3.70;;
78783;SDS011;68127;51.050;14.084;2023-07-20T09:40:29;5.80;;;3.88;;
78783;SDS011;68127;51.050;14.084;2023-07-20T09:42:54;5.65;;;3.67;;
78783;SDS011;68127;51.050;14.084;2023-07-20T09:45:35;5.80;;;4.15;;
78783;SDS011;68127;51.050;14.084;2023-07-20T09:48:09;7.68;;;3.58;;
78783;SDS011;68127;51.050;14.084;2023-07-20T09:50:39;5.78;;;3.72;;
78783;SDS011;68127;51.050;14.084;2023-07-20T09:53:07;6.22;;;3.88;;
78783;SDS011;68127;51.050;14.084;2023-07-20T09:55:32;6.22;;;3.78;;
78783;SDS011;68127;51.050;14.084;2023-07-20T09:57:59;5.38;;;3.97;;
78783;SDS011;68127;51.050;14.084;2023-07-20T10:00:25;6.57;;;3.80;;
78783;SDS011;68127;51.050;14.084;2023-07-20T10:02:51;5.05;;;3.40;;
78783;SDS011;68127;51.050;14.084;2023-07-20T10:05:17;6.03;;;4.00;;
78783;SDS011;68127;51.050;14.084;2023-07-20T10:07:44;6.25;;;3.63;;
78783;SDS011;68127;51.050;14.084;2023-07-20T10:10:11;6.20;;;3.90;;
78783;SDS011;68127;51.050;14.084;2023-07-20T10:12:39;11.05;;;6.45;;
78783;SDS011;68127;51.050;14.084;2023-07-20T10:15:17;11.77;;;5.40;;
78783;SDS011;68127;51.050;14.084;2023-07-20T10:17:48;7.95;;;3.80;;
78783;SDS011;68127;51.050;14.084;2023-07-20T10:20:19;6.40;;;3.75;;
78783;SDS011;68127;51.050;14.084;2023-07-20T10:22:45;4.90;;;3.63;;
78783;SDS011;68127;51.050;14.084;2023-07-20T10:25:13;4.97;;;3.65;;
78783;SDS011;68127;51.050;14.084;2023-07-20T10:27:39;11.55;;;4.57;;
78783;SDS011;68127;51.050;14.084;2023-07-20T10:30:05;8.98;;;3.85;;
78783;SDS011;68127;51.050;14.084;2023-07-20T10:32:31;6.10;;;3.50;;
78783;SDS011;68127;51.050;14.084;2023-07-20T10:34:56;6.43;;;4.07;;
78783;SDS011;68127;51.050;14.084;2023-07-20T10:43:02;5.63;;;2.80;;
78783;SDS011;68127;51.050;14.084;2023-07-20T10:48:18;5.80;;;4.00;;
78783;SDS011;68127;51.050;14.084;2023-07-20T10:53:41;5.95;;;4.10;;
78783;SDS011;68127;51.050;14.084;2023-07-20T10:56:08;7.15;;;4.20;;
78783;SDS011;68127;51.050;14.084;2023-07-20T10:58:34;6.35;;;3.95;;
78783;SDS011;68127;51.050;14.084;2023-07-20T11:01:00;7.57;;;4.00;;
78783;SDS011;68127;51.050;14.084;2023-07-20T11:03:27;4.40;;;3.10;;
78783;SDS011;68127;51.050;14.084;2023-07-20T11:05:54;4.47;;;2.90;;
78783;SDS011;68127;51.050;14.084;2023-07-20T11:08:37;5.45;;;2.70;;
78783;SDS011;68127;51.050;14.084;2023-07-20T11:14:02;6.15;;;2.80;;
78783;SDS011;68127;51.050;14.084;2023-07-20T11:16:47;5.63;;;3.00;;
78783;SDS011;68127;51.050;14.084;2023-07-20T11:19:17;5.05;;;2.78;;
78783;SDS011;68127;51.050;14.084;2023-07-20T11:21:57;6.65;;;2.63;;
78783;SDS011;68127;51.050;14.084;2023-07-20T11:24:23;5.05;;;2.85;;
78783;SDS011;68127;51.050;14.084;2023-07-20T11:26:52;5.93;;;3.13;;
78783;SDS011;68127;51.050;14.084;2023-07-20T11:29:21;5.28;;;3.30;;
78783;SDS011;68127;51.050;14.084;2023-07-20T11:31:48;5.35;;;3.28;;
78783;SDS011;68127;51.050;14.084;2023-07-20T11:34:14;5.05;;;2.80;;
78783;SDS011;68127;51.050;14.084;2023-07-20T11:36:42;5.18;;;3.40;;
78783;SDS011;68127;51.050;14.084;2023-07-20T11:39:09;5.80;;;3.20;;
78783;SDS011;68127;51.050;14.084;2023-07-20T11:41:35;6.07;;;4.00;;
78783;SDS011;68127;51.050;14.084;2023-07-20T11:44:00;4.80;;;3.28;;
78783;SDS011;68127;51.050;14.084;2023-07-20T11:46:27;5.80;;;3.85;;
78783;SDS011;68127;51.050;14.084;2023-07-20T11:48:59;5.13;;;3.45;;
78783;SDS011;68127;51.050;14.084;2023-07-20T11:51:25;4.97;;;3.38;;
78783;SDS011;68127;51.050;14.084;2023-07-20T11:53:53;5.28;;;3.30;;
78783;SDS011;68127;51.050;14.084;2023-07-20T11:56:19;5.35;;;3.35;;
78783;SDS011;68127;51.050;14.084;2023-07-20T11:58:45;5.03;;;3.67;;
78783;SDS011;68127;51.050;14.084;2023-07-20T12:01:11;4.30;;;3.00;;
78783;SDS011;68127;51.050;14.084;2023-07-20T12:03:39;4.20;;;3.10;;
78783;SDS011;68127;51.050;14.084;2023-07-20T12:06:09;4.45;;;3.00;;
78783;SDS011;68127;51.050;14.084;2023-07-20T12:08:37;4.38;;;3.10;;
78783;SDS011;68127;51.050;14.084;2023-07-20T12:11:03;3.55;;;2.40;;
78783;SDS011;68127;51.050;14.084;2023-07-20T12:13:36;5.05;;;2.97;;
78783;SDS011;68127;51.050;14.084;2023-07-20T12:16:11;4.80;;;2.90;;
78783;SDS011;68127;51.050;14.084;2023-07-20T12:18:43;5.07;;;2.95;;
78783;SDS011;68127;51.050;14.084;2023-07-20T12:21:09;4.40;;;2.80;;
78783;SDS011;68127;51.050;14.084;2023-07-20T12:23:35;3.90;;;2.47;;
78783;SDS011;68127;51.050;14.084;2023-07-20T12:26:02;3.53;;;2.30;;
78783;SDS011;68127;51.050;14.084;2023-07-20T12:28:29;6.05;;;2.10;;
78783;SDS011;68127;51.050;14.084;2023-07-20T12:30:54;4.05;;;2.33;;
78783;SDS011;68127;51.050;14.084;2023-07-20T12:33:26;3.90;;;2.10;;
78783;SDS011;68127;51.050;14.084;2023-07-20T12:35:51;3.45;;;2.10;;
78783;SDS011;68127;51.050;14.084;2023-07-20T12:38:20;4.50;;;2.38;;
78783;SDS011;68127;51.050;14.084;2023-07-20T12:40:46;4.63;;;2.30;;
78783;SDS011;68127;51.050;14.084;2023-07-20T12:43:12;3.92;;;2.40;;
78783;SDS011;68127;51.050;14.084;2023-07-20T12:45:37;3.80;;;2.30;;
78783;SDS011;68127;51.050;14.084;2023-07-20T12:48:03;3.95;;;2.22;;
78783;SDS011;68127;51.050;14.084;2023-07-20T12:50:28;4.88;;;2.30;;
78783;SDS011;68127;51.050;14.084;2023-07-20T12:52:55;6.25;;;2.67;;
78783;SDS011;68127;51.050;14.084;2023-07-20T12:55:20;4.10;;;2.58;;
78783;SDS011;68127;51.050;14.084;2023-07-20T12:57:45;4.03;;;2.60;;
78783;SDS011;68127;51.050;14.084;2023-07-20T13:00:11;4.35;;;2.83;;
78783;SDS011;68127;51.050;14.084;2023-07-20T13:02:39;4.00;;;2.38;;
78783;SDS011;68127;51.050;14.084;2023-07-20T13:05:05;5.05;;;2.53;;
78783;SDS011;68127;51.050;14.084;2023-07-20T13:07:36;4.05;;;2.58;;
78783;SDS011;68127;51.050;14.084;2023-07-20T13:10:04;6.65;;;2.58;;
78783;SDS011;68127;51.050;14.084;2023-07-20T13:12:32;4.70;;;2.78;;
78783;SDS011;68127;51.050;14.084;2023-07-20T13:14:58;4.45;;;2.50;;
78783;SDS011;68127;51.050;14.084;2023-07-20T13:17:27;3.70;;;2.50;;
78783;SDS011;68127;51.050;14.084;2023-07-20T13:19:52;4.85;;;2.50;;
78783;SDS011;68127;51.050;14.084;2023-07-20T13:22:18;8.30;;;2.60;;
78783;SDS011;68127;51.050;14.084;2023-07-20T13:24:44;3.58;;;2.40;;
78783;SDS011;68127;51.050;14.084;2023-07-20T13:27:10;5.05;;;2.20;;
78783;SDS011;68127;51.050;14.084;2023-07-20T13:29:35;4.78;;;2.28;;
78783;SDS011;68127;51.050;14.084;2023-07-20T13:32:01;5.28;;;2.45;;
78783;SDS011;68127;51.050;14.084;2023-07-20T13:34:29;6.78;;;2.83;;
78783;SDS011;68127;51.050;14.084;2023-07-20T13:36:54;4.07;;;2.80;;
78783;SDS011;68127;51.050;14.084;2023-07-20T13:39:19;4.13;;;3.00;;
78783;SDS011;68127;51.050;14.084;2023-07-20T13:41:45;4.43;;;2.70;;
78783;SDS011;68127;51.050;14.084;2023-07-20T13:44:10;5.22;;;2.97;;
78783;SDS011;68127;51.050;14.084;2023-07-20T13:46:35;5.10;;;2.75;;
78783;SDS011;68127;51.050;14.084;2023-07-20T13:49:01;4.65;;;2.60;;
78783;SDS011;68127;51.050;14.084;2023-07-20T13:51:26;4.07;;;2.42;;
78783;SDS011;68127;51.050;14.084;2023-07-20T13:53:51;4.50;;;2.13;;
78783;SDS011;68127;51.050;14.084;2023-07-20T13:56:16;4.32;;;2.75;;
78783;SDS011;68127;51.050;14.084;2023-07-20T13:58:42;4.43;;;2.90;;
78783;SDS011;68127;51.050;14.084;2023-07-20T14:01:07;4.93;;;2.95;;
78783;SDS011;68127;51.050;14.084;2023-07-20T14:03:32;4.00;;;2.55;;
78783;SDS011;68127;51.050;14.084;2023-07-20T14:05:58;5.55;;;2.80;;
78783;SDS011;68127;51.050;14.084;2023-07-20T14:08:23;4.82;;;2.80;;
78783;SDS011;68127;51.050;14.084;2023-07-20T14:10:48;5.22;;;2.80;;
78783;SDS011;68127;51.050;14.084;2023-07-20T14:13:14;4.55;;;2.55;;
78783;SDS011;68127;51.050;14.084;2023-07-20T14:15:39;4.13;;;2.65;;
78783;SDS011;68127;51.050;14.084;2023-07-20T14:18:05;4.97;;;2.83;;
78783;SDS011;68127;51.050;14.084;2023-07-20T14:20:30;6.20;;;2.45;;
78783;SDS011;68127;51.050;14.084;2023-07-20T14:22:55;4.00;;;2.38;;
78783;SDS011;68127;51.050;14.084;2023-07-20T14:25:21;4.78;;;2.42;;
78783;SDS011;68127;51.050;14.084;2023-07-20T14:27:46;5.25;;;2.55;;
78783;SDS011;68127;51.050;14.084;2023-07-20T14:30:15;4.15;;;2.40;;
78783;SDS011;68127;51.050;14.084;2023-07-20T14:32:40;3.88;;;2.40;;
78783;SDS011;68127;51.050;14.084;2023-07-20T14:35:06;4.10;;;2.42;;
78783;SDS011;68127;51.050;14.084;2023-07-20T14:37:32;4.68;;;2.40;;
78783;SDS011;68127;51.050;14.084;2023-07-20T14:39:57;3.70;;;2.28;;
78783;SDS011;68127;51.050;14.084;2023-07-20T14:42:22;3.95;;;2.70;;
78783;SDS011;68127;51.050;14.084;2023-07-20T14:44:48;4.80;;;2.67;;
78783;SDS011;68127;51.050;14.084;2023-07-20T14:47:13;4.18;;;2.63;;
78783;SDS011;68127;51.050;14.084;2023-07-20T14:49:38;3.80;;;2.63;;
78783;SDS011;68127;51.050;14.084;2023-07-20T14:52:04;3.50;;;2.33;;
78783;SDS011;68127;51.050;14.084;2023-07-20T14:54:29;3.92;;;1.95;;